KELO

Ely Municipal Airport

Ely, Minnesota, USA
METAR KELO 201635Z AUTO 33012G23KT 10SM OVC037 M03/M11 A3013 RMK AO2
Observed Flight Rules
Oct-20 @ 16:35 UTC (35 minutes ago) Visual Flight Rules
Wind Visibility Clouds
330° at 12 knots
 Gusting to 23 knots
10 miles
  • Overcast at 3,700' AGL
Temperatures Readings
Current -3°C / 27°F
Dewpoint -11°C / 12°F
Humidity 54%
Altimeter 30.13" Hg
Pressure 1020 hPa
Elevation 443
METAR KELO 201635Z AUTO 33012G23KT 10SM OVC037 M03/M11 A3013 RMK AO2
Observed Flight Rules
Oct-20 @ 16:35 UTC
(35 minutes ago)
VFR
Wind Visibility
330° at 12 knots
 Gusting to 23 knots
10 miles
Clouds
  • Overcast at 3,700' AGL
Temperature Dewpoint
-3°C / 27°F -11°C / 12°F
Humidity Altimeter Pressure
54% 30.13" Hg 1020 hPa